Flight Briefing for CPX231

Departure Arrival
Phoenix Sky Harbor International Airport (KPHX)
Click to view FAA NOTAMS
Chicago/Rockford International Airport (KRFD)
Click to view FAA NOTAMS
Departure Time Arrival Time
N/A N/A
Aircraft Distance
B767-300BDSF 1204nm
Departure METAR Arrival METAR
KPHX 221151Z 09003KT 10SM CLR 11/06 A3001 RMK AO2 SLP156 T01110056 10161 20111 53003 KRFD 221154Z 34005KT 10SM CLR 01/M02 A3005 RMK AO2 SLP182 T00061017 10039 20006 53024
Suggested Route
BROAK1 MAXXO ACH J231 LBL J19 ICT J26 IRK J232 MZV PLL


View recent IFR Routes data
Notes



Charts and Procedures

Charts for KPHX
No chart available
Charts for KRFD
No chart available

Windy.com Weather Map